METAR AND TAF INFORMATION


GMME 200500Z 00000KT 6000 FEW013 BKN020 12/12 Q1017 NOSIG
GMME 200430Z 00000KT 6000 FEW013 BKN020 12/11 Q1016 NOSIG
TAF GMME 192300Z 2000/2106 VRB02KT 6000 SCT013 BKN020 TEMPO 2008/2018 32010KT 9999 SCT020

 AIRPORT MAP

 RUNWAY INFORMATION
Runway 04 Runway length 11483 ft Runway width 148 ft
Runway elevation 273 ft Runway displaced threshold 0 ft Runway heading 31
Runway 22 Runway length 11483 ft Runway width 148 ft
Runway elevation 240 ft Runway displaced threshold 0 ft Runway heading 211

 AIRPORT FREQUENCIES
Type APP Name APP Frequency 118.9 MHZ
Type TWR Name TWR Frequency 118.3 MHZ

 AIRPORT NEAR NAVIGATION AIDS
Type VOR-DME Name Rabat Frequency 116500 KHZ
Type NDB Name Rabat Frequency 332 KHZ